Terminal Aerodrome Forecast
Issued by NWS

Home | Current Version | Previous Version | Text Only | Print | Product List | Glossary On
Versions: 1 2 3 4 5 6 7 8 9 10 11 12 13 14 15 16 17 18 19 20 21 22 23 24 25
000
FTUS46 KSEW 241727
TAFHQM
TAF
KHQM 241727Z 2418/2518 10005KT P6SM VCFG FEW007 BKN200
     FM242000 25011KT P6SM FEW120 BKN200
     FM250200 27005KT P6SM SCT018 SCT120 BKN200
     FM250600 VRB03KT 5SM BR OVC009
     FM251000 VRB03KT 1SM BR OVC003=

USA.gov is the U.S. government's official web portal to all federal, state and local government web resources and services.